Pagrindinis puslapis
METAR-TAF:

METAR-TAF

Oro uostai :

Nairobis, Kenija

platuma: 01-19S, ilguma: 036-55E, Aukštis: 1624 m

Dabartinis oras

Ataskaita buvo paskelbta 40 minutes, ne 05:30 UTC
Vėjas 9 kt iš Šiaurės Rytų
Temperatūra 19°C
Drėgmė 88%
Slėgis 1022 hPa
Matomumas 10 km arba daugiau
Mažai debesys ne aukštis 1000 ft
Su prošvaistėmis ne aukštis 1800 ft

METAR: HKJK 230530Z 05009KT 9999 FEW010 BKN018 19/17 Q1022 NOSIG

Laikas: 09:10 (06:10 UTC)

Prognozė

Ataskaita buvo paskelbta 19 valandos ir 10 minutes, ne 11:00 UTC
Prognozė galioja nuo 22 metu 12 UTC su 23 metu 18 UTC
Vėjas 10 kt iš Rytų/Šiaurės Rytų
Matomumas 10 km arba daugiau
Išsisklaidę debesys ne aukštis 2600 ft
Tapsmas
nuo 22 metu 20 UTC su 22 metu 23 UTC
Vėjas 5 kt iš Šiaurės/Šiaurės Rytų
Išsisklaidę debesys ne aukštis 500 ft
Su prošvaistėmis ne aukštis 1600 ft
Tapsmas
nuo 23 metu 08 UTC su 23 metu 11 UTC
Vėjas 10 kt iš Rytų/Šiaurės Rytų
Išsisklaidę debesys ne aukštis 2500 ft

TAF: HKJK 221100Z 2212/2318 06010KT 9999 SCT026 BECMG 2220/2223 02005KT SCT005 BKN016 BECMG 2308/2311 06010KT SCT025

Orai ataskaitas ir orų prognozės (METAR, TAF).

turimą stotys yra geltonos ir raudonos taškus žemėlapyje.

Perkelti pele per norėdami pamatyti stoties vardą.

Tada spustelėkite, norėdami matyti oro stebėjimo ir prognozės.

Norėdami pakeisti žemėlapį: spustelėkite ant žalios mygtukų su juodo kryžiaus žemyn,; žalią mygtuką su brūkšneliu, jei norite nutolinti; arba žalių rodyklių gretimoms žemėlapius.


METAR-TAF: